Time;durP1;ratioP1;P1;durP2;ratioP2;P2;SDS_P1;SDS_P2;PMS_P1;PMS_P2;Temp;Humidity;BMP_temperature;BMP_pressure;BME280_temperature;BME280_humidity;BME280_pressure;Samples;Min_cycle;Max_cycle;Signal;HPM_P1;HPM_P2
2022/07/01 00:00:00;;;;;;;5.30;3.92;;;18.30;90.10;;;;;;5048274;28;20044;-49
2022/07/01 00:02:28;;;;;;;10.93;4.13;;;18.20;90.20;;;;;;5052184;28;20025;-49
2022/07/01 00:04:53;;;;;;;4.78;3.50;;;18.30;90.20;;;;;;5031961;28;20096;-47
2022/07/01 00:07:19;;;;;;;4.07;3.20;;;18.20;89.90;;;;;;5039687;28;20052;-46
2022/07/01 00:09:45;;;;;;;4.35;3.50;;;18.20;89.90;;;;;;5041520;28;20410;-46
2022/07/01 00:12:10;;;;;;;4.90;3.60;;;18.20;89.90;;;;;;5047401;28;20045;-46
2022/07/01 00:14:36;;;;;;;5.68;3.38;;;18.10;90.10;;;;;;5050777;28;20056;-46
2022/07/01 00:17:04;;;;;;;4.20;3.22;;;18.10;90.00;;;;;;5043287;28;20045;-45
2022/07/01 00:19:30;;;;;;;8.30;3.75;;;17.90;90.00;;;;;;5032057;28;20029;-48
2022/07/01 00:21:56;;;;;;;5.40;3.78;;;17.90;90.10;;;;;;5034183;28;20071;-47
2022/07/01 00:24:21;;;;;;;4.65;4.13;;;17.90;90.20;;;;;;5052058;28;20056;-45
2022/07/01 00:26:47;;;;;;;5.25;3.70;;;17.90;90.00;;;;;;5040609;28;20041;-45
2022/07/01 00:29:12;;;;;;;7.30;4.65;;;17.90;90.20;;;;;;5037271;28;20033;-46
2022/07/01 00:31:38;;;;;;;8.55;4.40;;;17.80;90.10;;;;;;5031025;28;20022;-45
2022/07/01 00:34:04;;;;;;;16.27;6.70;;;17.90;90.40;;;;;;5032336;28;20366;-46
2022/07/01 00:36:30;;;;;;;7.18;5.10;;;17.80;90.50;;;;;;5031714;28;20037;-47
2022/07/01 00:38:57;;;;;;;9.77;6.70;;;17.90;90.70;;;;;;5031034;28;20117;-45
2022/07/01 00:41:23;;;;;;;9.98;7.43;;;17.90;90.70;;;;;;5031315;28;20069;-45
2022/07/01 00:43:49;;;;;;;12.73;8.05;;;17.90;90.80;;;;;;5031226;28;20103;-45
2022/07/01 00:46:14;;;;;;;10.63;8.23;;;18.00;90.90;;;;;;5031228;28;20033;-45
2022/07/01 00:48:40;;;;;;;17.45;10.07;;;18.00;90.90;;;;;;5035171;28;20040;-44
2022/07/01 00:51:06;;;;;;;15.13;10.35;;;18.10;90.90;;;;;;5031425;28;20037;-45
2022/07/01 00:53:35;;;;;;;15.75;10.00;;;18.10;90.90;;;;;;5037749;28;20028;-43
2022/07/01 00:56:01;;;;;;;13.65;9.57;;;18.20;91.00;;;;;;5049589;28;20044;-44
2022/07/01 00:58:30;;;;;;;14.90;9.55;;;18.20;91.00;;;;;;5048912;28;20029;-46
2022/07/01 01:00:58;;;;;;;;;;;18.20;90.90;;;;;;5050617;28;20120;-44
2022/07/01 01:03:24;;;;;;;21.77;9.43;;;18.10;91.00;;;;;;5042751;28;19917;-44
2022/07/01 01:05:50;;;;;;;28.90;8.48;;;18.10;90.90;;;;;;5047099;28;20040;-44
2022/07/01 01:08:17;;;;;;;12.23;6.07;;;18.10;90.80;;;;;;5050406;28;20029;-45
2022/07/01 01:10:46;;;;;;;22.88;7.55;;;18.10;90.90;;;;;;5047363;28;20456;-43
2022/07/01 01:13:14;;;;;;;22.92;7.07;;;18.10;90.80;;;;;;5050758;28;20049;-45
2022/07/01 01:15:42;;;;;;;18.50;7.63;;;18.00;90.80;;;;;;5049923;28;20075;-44
2022/07/01 01:18:10;;;;;;;17.42;6.68;;;18.00;90.70;;;;;;5049468;28;20092;-43
2022/07/01 01:20:37;;;;;;;22.67;7.35;;;17.90;90.60;;;;;;5050346;28;20143;-43
2022/07/01 01:23:04;;;;;;;22.40;7.40;;;17.90;90.50;;;;;;5048713;28;20471;-45
2022/07/01 01:25:33;;;;;;;19.58;6.32;;;17.80;90.50;;;;;;5050107;28;20020;-42
2022/07/01 01:28:00;;;;;;;24.00;6.93;;;17.70;90.30;;;;;;5048023;28;20017;-43
2022/07/01 01:30:26;;;;;;;23.33;6.80;;;17.60;90.50;;;;;;5048256;28;20059;-43
2022/07/01 01:32:52;;;;;;;26.23;6.35;;;17.60;90.40;;;;;;5047956;28;20075;-43
2022/07/01 01:35:21;;;;;;;23.60;7.93;;;17.50;90.30;;;;;;5049557;28;20021;-43
2022/07/01 01:37:48;;;;;;;24.90;5.63;;;17.40;90.10;;;;;;5043375;28;20422;-44
2022/07/01 01:40:14;;;;;;;23.23;5.68;;;17.30;90.10;;;;;;5047636;28;20052;-43
2022/07/01 01:42:42;;;;;;;29.08;7.05;;;17.30;90.30;;;;;;5047345;28;20045;-44
2022/07/01 01:45:10;;;;;;;23.02;6.82;;;17.20;90.30;;;;;;5048839;28;20378;-43
2022/07/01 01:47:36;;;;;;;28.02;6.93;;;17.00;90.20;;;;;;5033504;28;20029;-43
2022/07/01 01:50:01;;;;;;;20.23;5.10;;;16.90;90.10;;;;;;5048886;28;20044;-43
2022/07/01 01:52:27;;;;;;;18.55;4.78;;;16.80;90.10;;;;;;5052674;28;20071;-42
2022/07/01 01:54:53;;;;;;;23.58;5.35;;;16.70;90.20;;;;;;5049109;28;20036;-41
2022/07/01 01:57:18;;;;;;;17.88;4.85;;;16.60;90.10;;;;;;5055553;28;20024;-41
2022/07/01 01:59:44;;;;;;;16.27;4.28;;;16.50;90.10;;;;;;5050116;28;20048;-43
2022/07/01 02:02:10;;;;;;;17.38;3.88;;;16.50;90.00;;;;;;5033379;28;20064;-42
2022/07/01 02:04:37;;;;;;;18.98;4.45;;;16.50;89.80;;;;;;5045826;28;20021;-42
2022/07/01 02:07:04;;;;;;;15.70;3.40;;;16.40;89.90;;;;;;5047764;28;20461;-42
2022/07/01 02:09:30;;;;;;;13.10;3.60;;;16.40;89.80;;;;;;5033804;28;20021;-44
2022/07/01 02:11:56;;;;;;;16.58;3.67;;;16.40;89.90;;;;;;5044882;28;20457;-42
2022/07/01 02:14:21;;;;;;;21.33;4.82;;;16.40;89.80;;;;;;5048884;28;20658;-42
2022/07/01 02:16:47;;;;;;;15.00;3.17;;;16.40;89.90;;;;;;5052799;28;20102;-41
2022/07/01 02:19:13;;;;;;;17.52;3.45;;;16.40;89.40;;;;;;5047372;28;20393;-42
2022/07/01 02:21:43;;;;;;;9.77;2.88;;;16.30;89.40;;;;;;5049646;28;20056;-41
2022/07/01 02:24:09;;;;;;;20.02;3.42;;;16.20;89.50;;;;;;5042015;28;20041;-41
2022/07/01 02:26:35;;;;;;;10.35;3.13;;;16.20;89.60;;;;;;5049362;28;20036;-41
2022/07/01 02:29:04;;;;;;;11.93;3.33;;;16.30;89.70;;;;;;5047346;28;20025;-42
2022/07/01 02:31:30;;;;;;;10.10;2.67;;;16.20;89.40;;;;;;5028765;28;20217;-41
2022/07/01 02:33:55;;;;;;;13.82;2.33;;;16.30;89.70;;;;;;5029587;28;20469;-41
2022/07/01 02:36:21;;;;;;;9.98;2.60;;;16.30;89.30;;;;;;5047872;28;20029;-42
2022/07/01 02:38:46;;;;;;;9.80;2.20;;;16.30;89.40;;;;;;5046013;28;20033;-43
2022/07/01 02:41:12;;;;;;;11.27;2.50;;;16.30;89.30;;;;;;5029141;28;20050;-41
2022/07/01 02:43:38;;;;;;;11.20;2.53;;;16.30;89.30;;;;;;5028735;28;20413;-44
2022/07/01 02:46:04;;;;;;;8.15;1.98;;;16.30;89.40;;;;;;5043011;28;20037;-41
2022/07/01 02:48:29;;;;;;;11.18;2.20;;;16.20;89.30;;;;;;5048044;28;20029;-43
2022/07/01 02:50:55;;;;;;;6.20;1.80;;;16.20;89.50;;;;;;5048647;28;20044;-42
2022/07/01 02:53:21;;;;;;;5.72;2.70;;;16.20;89.30;;;;;;5048713;28;20033;-41
2022/07/01 02:55:47;;;;;;;7.75;1.83;;;16.20;89.40;;;;;;5046754;28;20033;-41
2022/07/01 02:58:12;;;;;;;5.18;1.35;;;16.20;89.40;;;;;;5048117;28;20353;-46
2022/07/01 03:00:40;;;;;;;5.13;1.63;;;16.20;89.30;;;;;;5055420;28;20021;-42
2022/07/01 03:03:06;;;;;;;10.68;2.10;;;16.20;89.30;;;;;;5048020;28;20029;-41
2022/07/01 03:05:32;;;;;;;4.70;1.90;;;16.20;89.30;;;;;;5040328;28;20017;-42
2022/07/01 03:07:58;;;;;;;8.30;1.70;;;16.10;89.30;;;;;;5048870;28;20028;-42
2022/07/01 03:10:23;;;;;;;8.32;2.33;;;16.20;89.30;;;;;;5040666;28;20029;-42
2022/07/01 03:12:49;;;;;;;10.80;1.50;;;16.20;89.50;;;;;;5027851;28;20115;-43
2022/07/01 03:15:15;;;;;;;7.40;1.65;;;16.20;89.20;;;;;;5037820;28;20029;-42
2022/07/01 03:17:46;;;;;;;6.00;1.55;;;16.30;89.20;;;;;;5048719;28;20119;-41
2022/07/01 03:20:14;;;;;;;7.20;1.60;;;16.30;89.20;;;;;;5037206;28;20063;-41
2022/07/01 03:22:41;;;;;;;5.68;1.40;;;16.40;89.00;;;;;;5049256;28;20123;-42
2022/07/01 03:25:07;;;;;;;12.23;1.52;;;16.30;89.00;;;;;;5045032;28;20033;-42
2022/07/01 03:27:36;;;;;;;5.50;1.83;;;16.40;89.00;;;;;;5048523;28;20025;-42
2022/07/01 03:30:05;;;;;;;17.58;2.15;;;16.40;88.90;;;;;;5041589;28;20029;-41
2022/07/01 03:32:31;;;;;;;6.47;2.03;;;16.50;89.00;;;;;;5032492;28;20026;-43
2022/07/01 03:34:57;;;;;;;7.63;1.55;;;16.50;88.90;;;;;;5044710;28;20335;-42
2022/07/01 03:37:24;;;;;;;5.55;1.33;;;16.50;89.10;;;;;;5052523;28;20052;-42
2022/07/01 03:39:50;;;;;;;8.68;1.60;;;16.50;88.90;;;;;;5042442;28;20051;-42
2022/07/01 03:42:17;;;;;;;5.80;1.30;;;16.50;88.80;;;;;;5032415;28;20139;-44
2022/07/01 03:44:46;;;;;;;6.97;1.65;;;16.60;88.70;;;;;;5041047;28;21357;-41
2022/07/01 03:47:12;;;;;;;5.10;1.38;;;16.50;88.40;;;;;;5052054;28;20346;-41
2022/07/01 03:49:37;;;;;;;5.07;1.50;;;16.50;88.70;;;;;;5057404;28;20031;-41
2022/07/01 03:52:04;;;;;;;5.80;1.77;;;16.50;88.80;;;;;;5052854;28;20033;-41
2022/07/01 03:54:35;;;;;;;6.65;1.35;;;16.60;88.90;;;;;;5045674;28;20026;-44
2022/07/01 03:57:03;;;;;;;11.27;1.80;;;16.60;88.70;;;;;;5052091;28;20028;-41
2022/07/01 03:59:33;;;;;;;6.47;2.15;;;16.60;88.80;;;;;;5055144;28;20060;-41
2022/07/01 04:02:01;;;;;;;;;;;16.60;88.80;;;;;;5035342;28;20038;-42
2022/07/01 04:04:27;;;;;;;8.60;2.28;;;16.60;88.90;;;;;;5066635;28;20280;-41
2022/07/01 04:06:53;;;;;;;7.68;2.10;;;16.60;89.00;;;;;;5040012;28;20033;-42
2022/07/01 04:09:20;;;;;;;5.28;1.77;;;16.50;89.00;;;;;;5049132;28;20037;-41
2022/07/01 04:11:50;;;;;;;5.10;1.38;;;16.50;89.10;;;;;;5032107;28;20408;-41
2022/07/01 04:14:17;;;;;;;10.50;1.63;;;16.60;89.00;;;;;;5032668;28;20025;-41
2022/07/01 04:16:44;;;;;;;5.10;1.25;;;16.60;89.20;;;;;;5032302;28;20029;-41
2022/07/01 04:19:09;;;;;;;6.18;1.85;;;16.60;89.20;;;;;;5031004;28;20029;-42
2022/07/01 04:24:24;;;;;;;6.28;1.77;;;16.50;88.80;;;;;;5050637;28;20032;-41
2022/07/01 04:26:53;;;;;;;6.18;1.45;;;16.50;88.80;;;;;;5035169;28;20106;-41
2022/07/01 04:29:19;;;;;;;4.18;1.10;;;16.50;88.80;;;;;;5060687;28;20024;-43
2022/07/01 04:31:45;;;;;;;12.32;2.00;;;16.40;89.00;;;;;;5046214;28;20036;-43
2022/07/01 04:34:11;;;;;;;4.20;1.38;;;16.40;89.20;;;;;;5050736;28;20056;-45
2022/07/01 04:36:40;;;;;;;5.38;1.77;;;16.40;89.10;;;;;;5050845;28;20108;-47
2022/07/01 04:39:06;;;;;;;6.18;2.00;;;16.40;89.00;;;;;;5048725;28;20040;-45
2022/07/01 04:44:17;;;;;;;7.30;1.58;;;16.30;89.00;;;;;;5049161;28;20032;-44
2022/07/01 04:46:43;;;;;;;4.30;1.75;;;16.30;88.90;;;;;;5049433;28;20058;-45
2022/07/01 04:49:09;;;;;;;3.15;2.17;;;16.30;88.90;;;;;;5050868;28;20017;-47
2022/07/01 04:51:34;;;;;;;7.07;1.67;;;16.30;88.90;;;;;;5050078;28;20029;-46
2022/07/01 04:54:05;;;;;;;3.90;1.58;;;16.20;88.60;;;;;;5050830;28;20040;-45
2022/07/01 04:56:32;;;;;;;5.07;1.77;;;16.20;88.80;;;;;;5046768;28;20040;-45
2022/07/01 04:59:00;;;;;;;3.90;1.40;;;16.10;88.90;;;;;;5030237;28;20025;-46
2022/07/01 05:01:26;;;;;;;3.80;1.77;;;16.10;88.70;;;;;;5043034;28;20107;-44
2022/07/01 05:03:54;;;;;;;2.70;1.50;;;16.10;88.80;;;;;;5049946;28;20116;-47
2022/07/01 05:06:19;;;;;;;3.45;1.70;;;16.20;88.90;;;;;;5053533;28;20051;-45
2022/07/01 05:08:47;;;;;;;2.78;1.67;;;16.10;88.50;;;;;;5024452;28;20443;-45
2022/07/01 05:11:15;;;;;;;3.40;1.27;;;16.10;88.50;;;;;;5031068;28;20025;-45
2022/07/01 05:13:43;;;;;;;3.85;1.90;;;16.20;88.50;;;;;;5032219;28;20041;-45
2022/07/01 05:16:09;;;;;;;13.13;2.03;;;16.20;88.50;;;;;;5046540;28;20029;-45
2022/07/01 05:24:08;;;;;;;6.20;2.00;;;16.20;88.30;;;;;;5049865;28;20044;-45
2022/07/01 05:26:33;;;;;;;3.78;2.00;;;16.30;88.40;;;;;;5051495;28;20488;-45
2022/07/01 05:29:01;;;;;;;6.13;2.03;;;16.30;88.30;;;;;;5048845;28;20055;-44
2022/07/01 05:31:30;;;;;;;3.72;2.05;;;16.30;88.30;;;;;;5050389;28;20044;-45
2022/07/01 05:33:58;;;;;;;4.03;1.75;;;16.30;88.20;;;;;;5042990;28;20069;-44
2022/07/01 05:36:23;;;;;;;3.20;2.03;;;16.40;88.30;;;;;;5039711;28;20025;-44
2022/07/01 05:38:49;;;;;;;4.95;2.05;;;16.40;87.80;;;;;;5046231;28;20025;-47
2022/07/01 05:41:16;;;;;;;4.00;2.00;;;16.30;87.40;;;;;;5048254;28;20049;-45
2022/07/01 05:43:44;;;;;;;4.18;1.98;;;16.40;87.50;;;;;;5049558;28;20032;-44
2022/07/01 05:46:10;;;;;;;5.47;2.78;;;16.40;87.60;;;;;;5047071;28;20032;-46
2022/07/01 05:48:36;;;;;;;3.38;1.90;;;16.40;87.80;;;;;;5048364;28;20023;-46
2022/07/01 05:51:02;;;;;;;3.17;1.77;;;16.40;87.10;;;;;;5048786;28;20017;-47
2022/07/01 05:53:28;;;;;;;3.90;1.85;;;16.40;87.40;;;;;;5046538;28;20029;-51
2022/07/01 05:55:54;;;;;;;5.65;1.90;;;16.40;87.30;;;;;;5050379;28;20123;-50
2022/07/01 05:58:19;;;;;;;6.72;2.15;;;16.30;87.70;;;;;;5046689;28;20389;-48
2022/07/01 06:00:45;;;;;;;3.42;2.08;;;16.20;87.50;;;;;;5049821;28;20040;-46
2022/07/01 06:03:12;;;;;;;4.03;1.92;;;16.20;87.90;;;;;;5051329;28;20028;-47
2022/07/01 06:05:39;;;;;;;5.35;2.25;;;16.20;87.80;;;;;;5049940;28;20021;-48
2022/07/01 06:08:08;;;;;;;3.88;1.60;;;16.20;88.10;;;;;;5049366;28;20074;-47
2022/07/01 06:10:34;;;;;;;5.60;1.67;;;16.30;88.10;;;;;;5042765;28;20039;-46
2022/07/01 06:13:00;;;;;;;6.22;2.17;;;16.30;87.80;;;;;;5047488;28;20397;-52
2022/07/01 06:15:26;;;;;;;4.20;2.05;;;16.20;87.60;;;;;;5048373;28;20466;-51
2022/07/01 06:17:53;;;;;;;3.33;1.70;;;16.30;87.70;;;;;;5048628;28;20029;-46
2022/07/01 06:20:18;;;;;;;4.38;2.03;;;16.40;87.80;;;;;;5046675;28;20037;-46
2022/07/01 06:22:47;;;;;;;4.95;1.90;;;16.40;87.30;;;;;;5046448;28;20035;-45
2022/07/01 06:25:15;;;;;;;2.97;1.50;;;16.40;87.20;;;;;;5043737;28;20044;-46
2022/07/01 06:27:45;;;;;;;4.07;1.88;;;16.40;87.50;;;;;;5028376;28;20033;-45
2022/07/01 06:30:11;;;;;;;5.22;2.20;;;16.40;87.30;;;;;;5032804;28;20113;-46
2022/07/01 06:32:40;;;;;;;9.38;2.90;;;16.20;87.30;;;;;;5049539;28;20454;-45
2022/07/01 06:35:07;;;;;;;3.90;2.50;;;16.20;87.50;;;;;;5033796;28;20371;-47
2022/07/01 06:37:35;;;;;;;5.70;2.65;;;16.20;87.50;;;;;;5028978;28;20029;-45
2022/07/01 06:40:03;;;;;;;7.75;3.35;;;16.30;87.60;;;;;;5029756;28;20117;-45
2022/07/01 06:42:28;;;;;;;4.45;3.03;;;16.20;87.80;;;;;;5029972;28;20128;-46
2022/07/01 06:44:54;;;;;;;4.15;2.38;;;16.20;87.60;;;;;;5032447;28;20503;-46
2022/07/01 06:47:20;;;;;;;4.78;2.53;;;16.40;88.10;;;;;;5035966;28;20025;-45
2022/07/01 06:49:45;;;;;;;4.75;2.67;;;16.40;87.80;;;;;;5057452;28;20029;-46
2022/07/01 06:52:11;;;;;;;4.72;2.67;;;16.40;87.80;;;;;;5029044;28;20691;-46
2022/07/01 06:54:37;;;;;;;5.47;2.83;;;16.50;87.60;;;;;;5028101;28;20026;-46
2022/07/01 06:57:04;;;;;;;5.65;3.33;;;16.60;87.80;;;;;;5080625;28;20021;-46
2022/07/01 06:59:30;;;;;;;4.97;3.33;;;16.70;87.60;;;;;;5047835;28;20043;-47
2022/07/01 07:01:57;;;;;;;8.35;3.83;;;16.80;87.70;;;;;;5051533;28;20029;-47
2022/07/01 07:04:23;;;;;;;7.63;3.83;;;17.00;87.60;;;;;;5054309;28;20040;-46
2022/07/01 07:06:48;;;;;;;5.35;3.30;;;17.20;87.90;;;;;;5049804;28;20024;-45
2022/07/01 07:09:14;;;;;;;5.65;3.78;;;17.50;87.10;;;;;;5044872;28;20031;-46
2022/07/01 07:11:42;;;;;;;5.13;3.10;;;17.60;86.50;;;;;;5049083;28;20029;-47
2022/07/01 07:14:10;;;;;;;5.28;3.78;;;17.80;86.50;;;;;;5047457;28;20478;-47
2022/07/01 07:16:36;;;;;;;7.32;3.78;;;17.90;85.00;;;;;;5039646;28;20445;-46
2022/07/01 07:19:01;;;;;;;5.47;3.88;;;17.90;85.10;;;;;;5042326;28;20121;-45
2022/07/01 07:21:27;;;;;;;6.07;3.78;;;17.90;84.90;;;;;;5049021;28;20029;-46
2022/07/01 07:23:52;;;;;;;5.43;3.65;;;17.90;84.70;;;;;;5032071;28;20045;-45
2022/07/01 07:26:18;;;;;;;4.88;3.40;;;17.70;85.20;;;;;;5037283;28;20045;-46
2022/07/01 07:28:44;;;;;;;6.82;3.60;;;17.80;85.70;;;;;;5059998;28;20024;-42
2022/07/01 07:31:10;;;;;;;7.60;3.10;;;17.90;85.10;;;;;;5050766;28;20032;-42
2022/07/01 07:33:35;;;;;;;6.82;3.33;;;17.90;84.70;;;;;;5048318;28;20033;-42
2022/07/01 07:36:01;;;;;;;5.60;3.13;;;17.90;84.40;;;;;;5045233;28;20116;-43
2022/07/01 07:38:29;;;;;;;7.55;3.40;;;17.80;84.60;;;;;;5045974;28;20459;-42
2022/07/01 07:40:54;;;;;;;5.25;2.80;;;17.60;83.80;;;;;;5045925;28;20455;-43
2022/07/01 07:43:20;;;;;;;5.97;2.45;;;17.30;83.80;;;;;;5048157;28;20057;-43
2022/07/01 07:45:46;;;;;;;7.30;3.38;;;17.10;84.60;;;;;;5044605;28;20339;-41
2022/07/01 07:48:11;;;;;;;6.20;2.40;;;17.00;84.20;;;;;;5048075;28;20044;-43
2022/07/01 07:50:37;;;;;;;8.10;2.67;;;16.90;84.90;;;;;;5044345;28;20025;-41
2022/07/01 07:53:03;;;;;;;5.25;2.67;;;16.90;85.10;;;;;;5048240;28;20028;-42
2022/07/01 07:55:33;;;;;;;6.22;2.70;;;16.90;85.40;;;;;;5029136;28;20033;-42
2022/07/01 07:58:00;;;;;;;6.75;2.70;;;16.90;85.60;;;;;;5051142;28;20036;-42
2022/07/01 08:00:28;;;;;;;7.45;3.33;;;17.00;85.20;;;;;;5034571;28;20036;-43
2022/07/01 08:02:53;;;;;;;5.85;3.03;;;16.90;85.10;;;;;;5042857;28;20059;-42
2022/07/01 08:05:19;;;;;;;3.83;2.45;;;17.00;85.70;;;;;;5040030;28;20017;-42
2022/07/01 08:07:45;;;;;;;5.22;2.60;;;17.10;85.30;;;;;;5046767;28;20032;-44
2022/07/01 08:10:17;;;;;;;5.88;2.97;;;17.10;85.10;;;;;;5042722;28;20570;-45
2022/07/01 08:12:43;;;;;;;6.47;2.40;;;17.10;85.00;;;;;;5042361;28;20037;-48
2022/07/01 08:15:09;;;;;;;5.18;2.50;;;17.20;85.40;;;;;;5045788;28;20036;-48
2022/07/01 08:17:35;;;;;;;6.38;2.22;;;17.20;85.50;;;;;;5047196;28;20071;-49
2022/07/01 08:20:01;;;;;;;7.05;3.20;;;17.20;85.30;;;;;;5047644;28;20029;-50
2022/07/01 08:22:27;;;;;;;8.18;2.80;;;17.30;85.70;;;;;;5050966;28;20376;-47
2022/07/01 08:24:52;;;;;;;3.97;2.80;;;17.20;85.10;;;;;;5046432;28;20042;-47
2022/07/01 08:27:18;;;;;;;5.65;2.83;;;17.20;85.40;;;;;;5051224;28;20032;-45
2022/07/01 08:29:44;;;;;;;6.00;3.13;;;17.30;85.70;;;;;;5064042;28;20384;-46
2022/07/01 08:32:12;;;;;;;8.82;3.80;;;17.40;85.30;;;;;;5070125;28;20423;-45
2022/07/01 08:34:37;;;;;;;8.30;3.63;;;17.40;85.10;;;;;;5056853;28;20126;-46
2022/07/01 08:37:04;;;;;;;5.95;3.40;;;17.40;85.20;;;;;;5050557;28;20449;-47
2022/07/01 08:39:29;;;;;;;6.28;3.30;;;17.50;85.00;;;;;;5051026;28;20338;-45
2022/07/01 08:41:58;;;;;;;6.53;4.38;;;17.50;84.50;;;;;;5040204;28;20053;-45
2022/07/01 08:44:24;;;;;;;7.75;4.28;;;17.50;83.80;;;;;;5050985;28;20025;-44
2022/07/01 08:46:54;;;;;;;11.13;3.92;;;17.70;84.30;;;;;;5049634;28;20093;-46
2022/07/01 08:49:23;;;;;;;6.68;3.30;;;17.80;83.80;;;;;;5049733;28;20028;-45
2022/07/01 08:51:51;;;;;;;8.52;3.97;;;17.90;84.20;;;;;;5049674;28;20028;-44
2022/07/01 08:54:19;;;;;;;9.55;4.43;;;17.90;83.90;;;;;;5031186;28;20033;-43
2022/07/01 08:56:45;;;;;;;11.13;4.25;;;18.00;83.30;;;;;;5040972;28;20024;-42
2022/07/01 08:59:22;;;;;;;12.77;4.80;;;18.10;83.60;;;;;;5031697;28;20051;-42
2022/07/01 09:02:04;;;;;;;7.47;4.13;;;18.20;83.20;;;;;;5031699;28;20532;-42
2022/07/01 09:04:31;;;;;;;7.63;4.65;;;18.30;82.50;;;;;;5037271;28;20029;-44
2022/07/01 09:07:08;;;;;;;9.88;4.68;;;18.20;81.40;;;;;;5053787;28;20525;-42
2022/07/01 09:09:36;;;;;;;5.97;3.67;;;18.20;81.90;;;;;;5045433;28;20551;-44
2022/07/01 09:12:04;;;;;;;8.63;5.30;;;18.30;81.90;;;;;;5047947;28;20130;-42
2022/07/01 09:14:35;;;;;;;8.77;4.30;;;18.20;82.60;;;;;;5029953;28;20125;-42
2022/07/01 09:17:05;;;;;;;6.28;4.47;;;18.30;81.60;;;;;;5039613;28;20412;-42
2022/07/01 09:19:36;;;;;;;6.13;4.28;;;18.40;81.80;;;;;;5031757;28;20057;-42
2022/07/01 09:22:04;;;;;;;7.63;4.40;;;18.40;81.10;;;;;;5031072;28;20036;-42
2022/07/01 09:24:32;;;;;;;6.47;4.70;;;18.60;81.40;;;;;;5030637;28;20029;-42
2022/07/01 09:27:09;;;;;;;8.63;4.82;;;18.70;80.00;;;;;;5040170;28;20029;-45
2022/07/01 09:29:36;;;;;;;9.70;5.07;;;18.90;79.60;;;;;;5063477;28;20032;-44
2022/07/01 09:32:06;;;;;;;7.07;4.95;;;18.70;79.00;;;;;;5067982;28;20036;-44
2022/07/01 09:34:39;;;;;;;11.60;5.85;;;18.70;78.30;;;;;;5043297;28;20028;-44
2022/07/01 09:37:15;;;;;;;6.88;4.85;;;18.60;79.30;;;;;;5046697;28;20079;-46
2022/07/01 09:39:55;;;;;;;6.50;4.95;;;18.70;79.40;;;;;;5060633;28;20413;-43
2022/07/01 09:42:22;;;;;;;10.40;5.63;;;18.90;79.50;;;;;;5051236;28;20473;-44
2022/07/01 09:44:58;;;;;;;8.63;5.10;;;19.10;78.90;;;;;;5049733;28;20096;-44
2022/07/01 09:47:28;;;;;;;7.72;4.85;;;19.10;79.10;;;;;;5043183;28;20032;-43
2022/07/01 09:49:55;;;;;;;7.57;5.30;;;19.20;78.90;;;;;;5052344;28;20043;-44
2022/07/01 09:52:22;;;;;;;10.35;6.00;;;19.10;77.20;;;;;;5046623;28;20044;-44
2022/07/01 09:54:51;;;;;;;8.43;4.82;;;19.20;77.40;;;;;;5030220;28;20025;-44
2022/07/01 09:57:18;;;;;;;5.70;4.43;;;19.20;77.30;;;;;;5044309;28;20029;-44
2022/07/01 09:59:47;;;;;;;8.20;5.20;;;19.40;77.10;;;;;;5049628;28;20040;-45
2022/07/01 10:02:13;;;;;;;7.13;4.38;;;19.40;77.00;;;;;;5048398;28;20085;-43
2022/07/01 10:04:42;;;;;;;6.45;5.03;;;19.40;75.70;;;;;;5052229;28;20480;-44
2022/07/01 10:07:41;;;;;;;8.50;5.33;;;19.50;75.70;;;;;;5049589;28;20401;-44
2022/07/01 10:10:28;;;;;;;8.48;5.55;;;19.60;74.70;;;;;;5046124;28;20043;-43
2022/07/01 10:12:55;;;;;;;7.82;5.55;;;19.60;75.20;;;;;;5039193;28;20059;-43
2022/07/01 10:15:22;;;;;;;10.70;6.30;;;19.40;74.10;;;;;;5049219;28;20146;-43
2022/07/01 10:17:50;;;;;;;8.95;5.90;;;19.40;75.50;;;;;;5046992;28;20033;-44
2022/07/01 10:20:26;;;;;;;9.65;6.78;;;19.40;75.30;;;;;;5049008;28;20369;-43
2022/07/01 10:23:04;;;;;;;7.35;5.65;;;19.40;74.50;;;;;;5040811;28;20562;-45
2022/07/01 10:25:30;;;;;;;10.93;6.30;;;19.30;74.90;;;;;;5029324;28;20044;-44
2022/07/01 10:28:28;;;;;;;8.00;5.82;;;19.10;74.60;;;;;;5030574;28;20084;-44
2022/07/01 10:31:05;;;;;;;11.10;6.30;;;19.00;75.40;;;;;;5058766;28;20057;-44
2022/07/01 10:33:45;;;;;;;13.48;7.35;;;19.10;75.70;;;;;;5039473;28;20044;-46
2022/07/01 10:36:12;;;;;;;11.55;6.82;;;19.00;75.10;;;;;;5042711;28;20033;-45
2022/07/01 10:39:00;;;;;;;10.77;6.68;;;19.10;76.30;;;;;;5029224;28;20040;-44
2022/07/01 10:41:26;;;;;;;10.13;6.78;;;19.40;75.70;;;;;;5040368;28;20045;-43
2022/07/01 10:43:56;;;;;;;9.13;6.57;;;19.60;75.10;;;;;;5048012;28;20098;-45
2022/07/01 10:46:45;;;;;;;7.82;6.75;;;19.90;75.10;;;;;;5048124;28;20040;-47
2022/07/01 10:49:19;;;;;;;12.15;7.13;;;20.00;73.70;;;;;;5046478;28;20399;-45
2022/07/01 10:51:51;;;;;;;8.18;6.88;;;19.90;71.70;;;;;;5041266;28;20022;-45
2022/07/01 10:54:39;;;;;;;10.02;7.45;;;20.00;72.60;;;;;;5046155;28;20051;-44
2022/07/01 10:57:20;;;;;;;8.70;7.35;;;19.80;73.10;;;;;;5045807;28;20059;-47
2022/07/01 11:00:03;;;;;;;9.63;7.45;;;19.70;74.20;;;;;;5047664;28;20032;-43
2022/07/01 11:02:30;;;;;;;9.75;7.47;;;19.90;75.00;;;;;;5045423;28;20478;-44
2022/07/01 11:05:02;;;;;;;10.25;6.60;;;19.70;72.40;;;;;;5048674;28;20488;-44
2022/07/01 11:07:33;;;;;;;7.45;5.90;;;20.20;72.40;;;;;;5051138;28;20028;-45
2022/07/01 11:09:59;;;;;;;10.80;6.47;;;20.50;72.40;;;;;;5044891;28;20036;-45
2022/07/01 11:12:28;;;;;;;10.02;5.93;;;20.80;70.70;;;;;;5039437;28;20045;-47
2022/07/01 11:14:55;;;;;;;9.38;5.43;;;21.00;68.60;;;;;;5046901;28;20028;-45
2022/07/01 11:17:23;;;;;;;8.20;5.55;;;21.40;68.90;;;;;;5032885;28;20083;-46
2022/07/01 11:19:50;;;;;;;6.57;5.97;;;21.50;68.60;;;;;;5047411;28;20061;-45
2022/07/01 11:22:20;;;;;;;9.73;6.03;;;21.60;66.10;;;;;;5048012;28;20024;-44
2022/07/01 11:24:51;;;;;;;8.85;5.65;;;21.40;64.80;;;;;;5035360;28;20021;-46
2022/07/01 11:27:16;;;;;;;6.47;5.28;;;21.40;64.60;;;;;;5060224;28;20104;-45
2022/07/01 11:29:42;;;;;;;9.57;5.47;;;21.30;65.30;;;;;;5048656;28;20109;-45
2022/07/01 11:32:08;;;;;;;7.53;5.35;;;21.50;67.00;;;;;;5033937;28;20148;-45
2022/07/01 11:34:36;;;;;;;6.65;5.97;;;21.60;65.70;;;;;;5048950;28;20650;-45
2022/07/01 11:40:09;;;;;;;10.95;6.30;;;22.00;67.80;;;;;;5028733;28;20044;-45
2022/07/01 11:42:35;;;;;;;9.57;4.93;;;21.90;62.60;;;;;;5038200;28;20044;-45
2022/07/01 11:45:03;;;;;;;7.10;4.88;;;21.60;62.70;;;;;;5067502;28;20358;-45
2022/07/01 11:47:30;;;;;;;7.10;5.47;;;21.60;63.70;;;;;;5059397;28;20087;-49
2022/07/01 11:49:57;;;;;;;5.00;4.38;;;21.80;62.20;;;;;;5044117;28;20447;-46
2022/07/01 11:52:23;;;;;;;6.65;4.07;;;22.10;64.00;;;;;;5030238;28;20060;-45
2022/07/01 11:54:52;;;;;;;8.25;5.10;;;22.80;61.80;;;;;;5033385;28;20473;-45
2022/07/01 11:57:23;;;;;;;9.68;6.13;;;22.60;62.40;;;;;;5049490;28;20112;-46
2022/07/01 11:59:52;;;;;;;8.07;3.97;;;22.40;59.10;;;;;;5045124;28;20037;-45
2022/07/01 12:02:21;;;;;;;5.57;2.92;;;22.10;60.30;;;;;;5031695;28;20025;-45
2022/07/01 12:04:50;;;;;;;5.68;3.20;;;21.90;61.70;;;;;;5043894;28;20424;-45
2022/07/01 12:07:19;;;;;;;7.68;3.10;;;22.10;60.30;;;;;;5042181;28;20499;-45
2022/07/01 12:09:45;;;;;;;5.70;3.67;;;22.40;60.80;;;;;;5043901;28;20411;-46
2022/07/01 12:12:25;;;;;;;5.43;3.63;;;22.70;60.40;;;;;;5031408;28;20120;-47
2022/07/01 12:14:55;;;;;;;6.57;3.92;;;22.70;58.20;;;;;;5032016;28;20029;-45
2022/07/01 12:17:22;;;;;;;8.27;4.57;;;22.50;58.80;;;;;;5050537;28;20489;-45
2022/07/01 12:19:52;;;;;;;4.95;4.20;;;22.50;60.90;;;;;;5044287;28;20087;-45
2022/07/01 12:22:25;;;;;;;7.75;4.05;;;22.70;62.20;;;;;;5031252;28;20039;-46
2022/07/01 12:24:53;;;;;;;10.73;5.05;;;22.80;60.30;;;;;;5031700;28;20026;-47
2022/07/01 12:27:22;;;;;;;5.85;3.88;;;22.50;58.20;;;;;;5031749;28;20051;-46
2022/07/01 12:29:51;;;;;;;7.45;4.40;;;22.40;60.70;;;;;;5062518;28;20020;-45
2022/07/01 12:32:27;;;;;;;8.38;4.90;;;22.40;61.20;;;;;;5071380;28;20112;-46
2022/07/01 12:34:57;;;;;;;7.10;5.38;;;22.10;62.20;;;;;;5035691;28;20028;-46
2022/07/01 12:37:32;;;;;;;6.95;4.40;;;22.00;63.00;;;;;;5051124;28;20017;-47
2022/07/01 12:40:02;;;;;;;6.65;5.43;;;21.90;64.40;;;;;;5032580;28;20111;-45
2022/07/01 12:42:41;;;;;;;6.82;5.20;;;21.60;63.70;;;;;;5010510;28;20129;-45
2022/07/01 12:45:15;;;;;;;8.48;6.10;;;21.50;65.00;;;;;;5017345;28;20028;-46
2022/07/01 12:47:51;;;;;;;8.50;6.22;;;21.20;65.20;;;;;;5020971;28;20080;-45
2022/07/01 12:50:21;;;;;;;8.73;6.38;;;21.30;66.10;;;;;;5010529;28;20026;-46
2022/07/01 12:53:12;;;;;;;7.53;4.95;;;21.70;66.30;;;;;;5012815;28;20095;-45
2022/07/01 12:55:48;;;;;;;7.40;4.93;;;21.70;64.80;;;;;;5030889;28;20063;-45
2022/07/01 12:58:19;;;;;;;9.68;5.10;;;21.80;62.60;;;;;;5022449;28;20458;-46
2022/07/01 13:00:49;;;;;;;6.32;5.15;;;21.80;62.20;;;;;;5035347;28;20036;-44
2022/07/01 13:03:19;;;;;;;7.68;5.80;;;21.70;62.40;;;;;;5027739;28;20036;-45